sensor_id;sensor_type;location;lat;lon;timestamp;pressure;altitude;pressure_sealevel;temperature;humidity
39954;BME280;25631;51.516;-0.470;2023-02-13T00:00:50;103347.99;;;5.92;38.64
39954;BME280;25631;51.516;-0.470;2023-02-13T00:03:26;103347.52;;;6.42;38.48
39954;BME280;25631;51.516;-0.470;2023-02-13T00:06:03;103342.60;;;6.31;38.48
39954;BME280;25631;51.516;-0.470;2023-02-13T00:08:40;103340.15;;;6.40;38.49
39954;BME280;25631;51.516;-0.470;2023-02-13T00:11:16;103338.56;;;6.35;38.49
39954;BME280;25631;51.516;-0.470;2023-02-13T00:13:53;103335.60;;;6.50;38.52
39954;BME280;25631;51.516;-0.470;2023-02-13T00:16:30;103332.54;;;6.24;38.62
39954;BME280;25631;51.516;-0.470;2023-02-13T00:19:07;103327.31;;;6.53;38.65
39954;BME280;25631;51.516;-0.470;2023-02-13T00:21:44;103327.84;;;6.43;38.70
39954;BME280;25631;51.516;-0.470;2023-02-13T00:24:21;103327.75;;;6.12;38.82
39954;BME280;25631;51.516;-0.470;2023-02-13T00:26:58;103324.60;;;6.12;38.80
39954;BME280;25631;51.516;-0.470;2023-02-13T00:29:34;103323.50;;;6.03;38.91
39954;BME280;25631;51.516;-0.470;2023-02-13T00:32:11;103320.48;;;6.15;38.89
39954;BME280;25631;51.516;-0.470;2023-02-13T00:34:47;103323.24;;;6.17;38.94
39954;BME280;25631;51.516;-0.470;2023-02-13T00:37:24;103320.96;;;6.06;38.92
39954;BME280;25631;51.516;-0.470;2023-02-13T00:40:01;103318.97;;;6.14;38.85
39954;BME280;25631;51.516;-0.470;2023-02-13T00:42:38;103322.59;;;6.47;38.72
39954;BME280;25631;51.516;-0.470;2023-02-13T00:45:14;103325.32;;;6.30;38.65
39954;BME280;25631;51.516;-0.470;2023-02-13T00:47:51;103323.58;;;6.04;38.51
39954;BME280;25631;51.516;-0.470;2023-02-13T00:50:28;103323.76;;;6.03;38.44
39954;BME280;25631;51.516;-0.470;2023-02-13T00:53:05;103322.29;;;6.36;38.38
39954;BME280;25631;51.516;-0.470;2023-02-13T00:55:42;103321.91;;;6.25;38.34
39954;BME280;25631;51.516;-0.470;2023-02-13T00:58:20;103322.09;;;6.12;38.29
39954;BME280;25631;51.516;-0.470;2023-02-13T01:00:56;103326.20;;;6.46;38.22
39954;BME280;25631;51.516;-0.470;2023-02-13T01:03:34;103325.09;;;6.15;38.17
39954;BME280;25631;51.516;-0.470;2023-02-13T01:06:11;103322.96;;;6.32;38.09
39954;BME280;25631;51.516;-0.470;2023-02-13T01:08:48;103321.45;;;6.34;38.05
39954;BME280;25631;51.516;-0.470;2023-02-13T01:11:24;103320.99;;;6.48;37.98
39954;BME280;25631;51.516;-0.470;2023-02-13T01:14:01;103317.80;;;6.35;38.04
39954;BME280;25631;51.516;-0.470;2023-02-13T01:16:37;103312.79;;;5.98;38.32
39954;BME280;25631;51.516;-0.470;2023-02-13T01:19:19;103314.15;;;6.01;38.43
39954;BME280;25631;51.516;-0.470;2023-02-13T01:21:56;103317.78;;;5.93;38.56
39954;BME280;25631;51.516;-0.470;2023-02-13T01:24:33;103318.20;;;5.93;38.69
39954;BME280;25631;51.516;-0.470;2023-02-13T01:27:09;103312.04;;;6.12;38.67
39954;BME280;25631;51.516;-0.470;2023-02-13T01:29:46;103309.37;;;6.01;38.58
39954;BME280;25631;51.516;-0.470;2023-02-13T01:32:23;103309.85;;;5.96;38.57
39954;BME280;25631;51.516;-0.470;2023-02-13T01:34:59;103309.86;;;6.16;38.48
39954;BME280;25631;51.516;-0.470;2023-02-13T01:37:36;103311.47;;;6.08;38.42
39954;BME280;25631;51.516;-0.470;2023-02-13T01:40:14;103312.51;;;5.98;38.41
39954;BME280;25631;51.516;-0.470;2023-02-13T01:42:56;103312.93;;;6.09;38.41
39954;BME280;25631;51.516;-0.470;2023-02-13T01:45:33;103313.07;;;6.02;38.37
39954;BME280;25631;51.516;-0.470;2023-02-13T01:48:14;103315.08;;;5.96;38.46
39954;BME280;25631;51.516;-0.470;2023-02-13T01:50:59;103316.11;;;5.86;38.49
39954;BME280;25631;51.516;-0.470;2023-02-13T01:53:41;103317.91;;;5.87;38.58
39954;BME280;25631;51.516;-0.470;2023-02-13T01:56:22;103316.47;;;5.92;38.53
39954;BME280;25631;51.516;-0.470;2023-02-13T01:59:04;103312.14;;;5.99;38.60
39954;BME280;25631;51.516;-0.470;2023-02-13T02:01:43;103308.44;;;5.98;38.60
39954;BME280;25631;51.516;-0.470;2023-02-13T02:04:22;103305.93;;;5.76;38.63
39954;BME280;25631;51.516;-0.470;2023-02-13T02:07:05;103312.39;;;6.11;38.49
39954;BME280;25631;51.516;-0.470;2023-02-13T02:09:44;103311.22;;;6.19;38.43
39954;BME280;25631;51.516;-0.470;2023-02-13T02:12:24;103309.90;;;5.99;38.36
39954;BME280;25631;51.516;-0.470;2023-02-13T02:15:03;103308.32;;;5.96;38.38
39954;BME280;25631;51.516;-0.470;2023-02-13T02:17:40;103309.13;;;5.83;38.39
39954;BME280;25631;51.516;-0.470;2023-02-13T02:20:28;103308.24;;;6.02;38.47
39954;BME280;25631;51.516;-0.470;2023-02-13T02:24:13;103306.47;;;5.87;38.51
39954;BME280;25631;51.516;-0.470;2023-02-13T02:29:21;103303.80;;;6.02;38.51
39954;BME280;25631;51.516;-0.470;2023-02-13T02:32:11;103299.13;;;5.69;38.54
39954;BME280;25631;51.516;-0.470;2023-02-13T02:34:58;103294.58;;;5.96;38.54
39954;BME280;25631;51.516;-0.470;2023-02-13T02:37:47;103293.29;;;5.92;38.54
39954;BME280;25631;51.516;-0.470;2023-02-13T02:40:35;103295.78;;;5.89;38.50
39954;BME280;25631;51.516;-0.470;2023-02-13T02:43:22;103297.67;;;6.21;38.50
39954;BME280;25631;51.516;-0.470;2023-02-13T02:46:08;103292.29;;;6.01;38.50
39954;BME280;25631;51.516;-0.470;2023-02-13T02:48:52;103294.92;;;6.06;38.51
39954;BME280;25631;51.516;-0.470;2023-02-13T02:51:38;103295.22;;;6.28;38.47
39954;BME280;25631;51.516;-0.470;2023-02-13T02:54:24;103298.91;;;5.81;38.59
39954;BME280;25631;51.516;-0.470;2023-02-13T02:57:08;103294.93;;;5.85;38.61
39954;BME280;25631;51.516;-0.470;2023-02-13T02:59:48;103293.65;;;5.91;38.61
39954;BME280;25631;51.516;-0.470;2023-02-13T03:02:27;103293.36;;;5.94;38.57
39954;BME280;25631;51.516;-0.470;2023-02-13T03:05:15;103293.33;;;5.98;38.47
39954;BME280;25631;51.516;-0.470;2023-02-13T03:07:52;103290.88;;;5.94;38.47
39954;BME280;25631;51.516;-0.470;2023-02-13T03:10:32;103291.32;;;5.84;38.54
39954;BME280;25631;51.516;-0.470;2023-02-13T03:13:15;103292.77;;;5.86;38.54
39954;BME280;25631;51.516;-0.470;2023-02-13T03:15:58;103290.97;;;5.75;38.57
39954;BME280;25631;51.516;-0.470;2023-02-13T03:18:38;103289.06;;;5.87;38.59
39954;BME280;25631;51.516;-0.470;2023-02-13T03:21:22;103288.06;;;5.87;38.69
39954;BME280;25631;51.516;-0.470;2023-02-13T03:24:09;103288.10;;;6.04;38.75
39954;BME280;25631;51.516;-0.470;2023-02-13T03:26:55;103287.62;;;6.13;38.78
39954;BME280;25631;51.516;-0.470;2023-02-13T03:29:43;103281.55;;;5.99;38.76
39954;BME280;25631;51.516;-0.470;2023-02-13T03:32:27;103278.65;;;5.99;38.71
39954;BME280;25631;51.516;-0.470;2023-02-13T03:35:18;103276.99;;;5.94;38.66
39954;BME280;25631;51.516;-0.470;2023-02-13T03:38:02;103273.15;;;5.94;38.69
39954;BME280;25631;51.516;-0.470;2023-02-13T03:40:46;103269.89;;;5.92;38.72
39954;BME280;25631;51.516;-0.470;2023-02-13T03:43:28;103266.09;;;5.96;38.63
39954;BME280;25631;51.516;-0.470;2023-02-13T03:46:07;103266.56;;;6.02;38.69
39954;BME280;25631;51.516;-0.470;2023-02-13T03:48:46;103269.29;;;5.95;38.72
39954;BME280;25631;51.516;-0.470;2023-02-13T03:51:27;103269.21;;;5.83;38.66
39954;BME280;25631;51.516;-0.470;2023-02-13T03:54:07;103267.88;;;5.88;38.69
39954;BME280;25631;51.516;-0.470;2023-02-13T03:56:49;103267.98;;;5.63;38.78
39954;BME280;25631;51.516;-0.470;2023-02-13T03:59:31;103269.94;;;5.72;38.76
39954;BME280;25631;51.516;-0.470;2023-02-13T04:02:12;103269.81;;;5.64;38.79
39954;BME280;25631;51.516;-0.470;2023-02-13T04:04:54;103268.97;;;5.71;38.74
39954;BME280;25631;51.516;-0.470;2023-02-13T04:07:34;103268.59;;;5.89;38.69
39954;BME280;25631;51.516;-0.470;2023-02-13T04:10:13;103266.04;;;5.77;38.68
39954;BME280;25631;51.516;-0.470;2023-02-13T04:12:57;103266.52;;;5.80;38.64
39954;BME280;25631;51.516;-0.470;2023-02-13T04:15:38;103270.21;;;5.70;38.63
39954;BME280;25631;51.516;-0.470;2023-02-13T04:18:19;103271.87;;;5.79;38.56
39954;BME280;25631;51.516;-0.470;2023-02-13T04:21:00;103269.60;;;5.95;38.47
39954;BME280;25631;51.516;-0.470;2023-02-13T04:23:37;103267.62;;;6.08;38.42
39954;BME280;25631;51.516;-0.470;2023-02-13T04:26:18;103267.11;;;6.01;38.42
39954;BME280;25631;51.516;-0.470;2023-02-13T04:28:56;103267.53;;;6.18;38.43
39954;BME280;25631;51.516;-0.470;2023-02-13T04:31:33;103268.72;;;5.88;38.42
39954;BME280;25631;51.516;-0.470;2023-02-13T04:34:12;103270.28;;;5.92;38.42
39954;BME280;25631;51.516;-0.470;2023-02-13T04:36:48;103267.19;;;5.90;38.42
39954;BME280;25631;51.516;-0.470;2023-02-13T04:39:25;103262.77;;;6.15;38.40
39954;BME280;25631;51.516;-0.470;2023-02-13T04:42:01;103256.86;;;5.90;38.42
39954;BME280;25631;51.516;-0.470;2023-02-13T04:44:38;103259.59;;;5.76;38.32
39954;BME280;25631;51.516;-0.470;2023-02-13T04:47:14;103259.62;;;5.86;38.31
39954;BME280;25631;51.516;-0.470;2023-02-13T04:49:51;103262.06;;;5.73;38.27
39954;BME280;25631;51.516;-0.470;2023-02-13T04:52:27;103260.20;;;5.60;38.10
39954;BME280;25631;51.516;-0.470;2023-02-13T04:55:05;103260.55;;;5.99;38.08
39954;BME280;25631;51.516;-0.470;2023-02-13T04:57:41;103258.26;;;5.31;38.08
39954;BME280;25631;51.516;-0.470;2023-02-13T05:00:19;103256.42;;;5.27;37.97
39954;BME280;25631;51.516;-0.470;2023-02-13T05:03:01;103256.18;;;5.17;37.93
39954;BME280;25631;51.516;-0.470;2023-02-13T05:05:39;103257.45;;;5.16;37.95
39954;BME280;25631;51.516;-0.470;2023-02-13T05:08:16;103249.76;;;5.53;37.97
39954;BME280;25631;51.516;-0.470;2023-02-13T05:10:52;103252.20;;;5.64;37.98
39954;BME280;25631;51.516;-0.470;2023-02-13T05:13:29;103250.19;;;5.69;37.94
39954;BME280;25631;51.516;-0.470;2023-02-13T05:16:06;103253.42;;;5.72;37.95
39954;BME280;25631;51.516;-0.470;2023-02-13T05:18:42;103252.35;;;5.64;37.90
39954;BME280;25631;51.516;-0.470;2023-02-13T05:21:19;103245.65;;;5.34;37.79
39954;BME280;25631;51.516;-0.470;2023-02-13T05:23:55;103247.15;;;5.61;37.75
39954;BME280;25631;51.516;-0.470;2023-02-13T05:26:32;103248.04;;;5.63;37.73
39954;BME280;25631;51.516;-0.470;2023-02-13T05:29:10;103246.28;;;5.63;37.67
39954;BME280;25631;51.516;-0.470;2023-02-13T05:31:48;103245.36;;;5.70;37.69
39954;BME280;25631;51.516;-0.470;2023-02-13T05:34:27;103242.07;;;5.60;37.59
39954;BME280;25631;51.516;-0.470;2023-02-13T05:37:04;103245.13;;;5.58;37.59
39954;BME280;25631;51.516;-0.470;2023-02-13T05:39:40;103243.23;;;5.75;37.55
39954;BME280;25631;51.516;-0.470;2023-02-13T05:42:17;103240.81;;;5.41;37.60
39954;BME280;25631;51.516;-0.470;2023-02-13T05:44:53;103238.74;;;5.30;37.62
39954;BME280;25631;51.516;-0.470;2023-02-13T05:47:30;103237.19;;;5.40;37.66
39954;BME280;25631;51.516;-0.470;2023-02-13T05:50:08;103236.59;;;5.38;37.71
39954;BME280;25631;51.516;-0.470;2023-02-13T05:52:44;103237.47;;;5.33;37.70
39954;BME280;25631;51.516;-0.470;2023-02-13T05:55:21;103240.05;;;5.43;37.69
39954;BME280;25631;51.516;-0.470;2023-02-13T05:57:57;103240.31;;;5.64;37.71
39954;BME280;25631;51.516;-0.470;2023-02-13T06:00:34;103241.17;;;5.44;37.66
39954;BME280;25631;51.516;-0.470;2023-02-13T06:03:10;103243.80;;;5.43;37.65
39954;BME280;25631;51.516;-0.470;2023-02-13T06:05:47;103245.07;;;5.17;37.64
39954;BME280;25631;51.516;-0.470;2023-02-13T06:08:24;103242.45;;;5.49;37.68
39954;BME280;25631;51.516;-0.470;2023-02-13T06:11:02;103243.02;;;5.13;37.68
39954;BME280;25631;51.516;-0.470;2023-02-13T06:13:39;103242.08;;;5.32;37.70
39954;BME280;25631;51.516;-0.470;2023-02-13T06:16:15;103237.10;;;5.21;37.65
39954;BME280;25631;51.516;-0.470;2023-02-13T06:18:53;103230.81;;;5.15;37.63
39954;BME280;25631;51.516;-0.470;2023-02-13T06:21:30;103232.56;;;5.18;37.62
39954;BME280;25631;51.516;-0.470;2023-02-13T06:24:07;103238.16;;;5.34;37.64
39954;BME280;25631;51.516;-0.470;2023-02-13T06:26:43;103238.47;;;5.40;37.59
39954;BME280;25631;51.516;-0.470;2023-02-13T06:29:20;103239.58;;;5.55;37.57
39954;BME280;25631;51.516;-0.470;2023-02-13T06:31:56;103238.58;;;5.66;37.50
39954;BME280;25631;51.516;-0.470;2023-02-13T06:34:33;103238.13;;;5.62;37.43
39954;BME280;25631;51.516;-0.470;2023-02-13T06:37:10;103242.41;;;5.56;37.41
39954;BME280;25631;51.516;-0.470;2023-02-13T06:39:47;103243.88;;;5.78;37.43
39954;BME280;25631;51.516;-0.470;2023-02-13T06:42:23;103241.24;;;5.58;37.43
39954;BME280;25631;51.516;-0.470;2023-02-13T06:44:59;103241.40;;;5.76;37.40
39954;BME280;25631;51.516;-0.470;2023-02-13T06:47:40;103244.55;;;5.73;37.37
39954;BME280;25631;51.516;-0.470;2023-02-13T06:50:17;103246.05;;;5.90;37.28
39954;BME280;25631;51.516;-0.470;2023-02-13T06:52:54;103249.64;;;5.89;37.24
39954;BME280;25631;51.516;-0.470;2023-02-13T06:55:30;103243.78;;;5.91;37.18
39954;BME280;25631;51.516;-0.470;2023-02-13T06:58:07;103241.11;;;5.93;37.09
39954;BME280;25631;51.516;-0.470;2023-02-13T07:00:43;103242.11;;;6.07;37.08
39954;BME280;25631;51.516;-0.470;2023-02-13T07:03:20;103246.04;;;6.14;37.00
39954;BME280;25631;51.516;-0.470;2023-02-13T07:05:57;103252.24;;;6.09;37.01
39954;BME280;25631;51.516;-0.470;2023-02-13T07:08:34;103253.90;;;6.23;36.96
39954;BME280;25631;51.516;-0.470;2023-02-13T07:11:16;103252.42;;;5.90;36.93
39954;BME280;25631;51.516;-0.470;2023-02-13T07:13:53;103252.61;;;6.20;36.92
39954;BME280;25631;51.516;-0.470;2023-02-13T07:16:29;103259.83;;;6.16;36.94
39954;BME280;25631;51.516;-0.470;2023-02-13T07:19:06;103260.92;;;5.91;36.87
39954;BME280;25631;51.516;-0.470;2023-02-13T07:21:42;103261.36;;;5.88;36.93
39954;BME280;25631;51.516;-0.470;2023-02-13T07:24:19;103262.96;;;5.98;36.86
39954;BME280;25631;51.516;-0.470;2023-02-13T07:26:55;103264.09;;;5.96;36.91
39954;BME280;25631;51.516;-0.470;2023-02-13T07:29:32;103262.56;;;5.91;36.92
39954;BME280;25631;51.516;-0.470;2023-02-13T07:32:09;103260.96;;;5.81;36.84
39954;BME280;25631;51.516;-0.470;2023-02-13T07:34:45;103260.41;;;5.73;36.84
39954;BME280;25631;51.516;-0.470;2023-02-13T07:37:22;103260.97;;;5.75;36.85
39954;BME280;25631;51.516;-0.470;2023-02-13T07:39:58;103264.31;;;5.84;36.83
39954;BME280;25631;51.516;-0.470;2023-02-13T07:42:35;103264.96;;;5.71;36.88
39954;BME280;25631;51.516;-0.470;2023-02-13T07:45:11;103260.78;;;5.82;36.78
39954;BME280;25631;51.516;-0.470;2023-02-13T07:47:48;103258.87;;;5.96;36.73
39954;BME280;25631;51.516;-0.470;2023-02-13T07:50:25;103255.95;;;5.74;36.69
39954;BME280;25631;51.516;-0.470;2023-02-13T07:53:02;103254.68;;;5.72;36.72
39954;BME280;25631;51.516;-0.470;2023-02-13T07:55:40;103251.07;;;5.73;36.78
39954;BME280;25631;51.516;-0.470;2023-02-13T07:58:17;103248.38;;;5.58;36.75
39954;BME280;25631;51.516;-0.470;2023-02-13T08:00:53;103246.45;;;5.68;36.76
39954;BME280;25631;51.516;-0.470;2023-02-13T08:03:30;103245.82;;;5.62;36.83
39954;BME280;25631;51.516;-0.470;2023-02-13T08:06:07;103247.60;;;5.78;36.88
39954;BME280;25631;51.516;-0.470;2023-02-13T08:08:43;103254.32;;;5.74;36.93
39954;BME280;25631;51.516;-0.470;2023-02-13T08:11:25;103252.78;;;5.46;37.04
39954;BME280;25631;51.516;-0.470;2023-02-13T08:14:04;103250.37;;;5.38;37.04
39954;BME280;25631;51.516;-0.470;2023-02-13T08:16:40;103250.65;;;5.40;36.97
39954;BME280;25631;51.516;-0.470;2023-02-13T08:19:17;103250.09;;;5.28;36.97
39954;BME280;25631;51.516;-0.470;2023-02-13T08:21:54;103247.60;;;5.39;37.02
39954;BME280;25631;51.516;-0.470;2023-02-13T08:24:31;103251.71;;;5.68;37.06
39954;BME280;25631;51.516;-0.470;2023-02-13T08:27:11;103251.97;;;5.76;37.10
39954;BME280;25631;51.516;-0.470;2023-02-13T08:29:48;103253.47;;;5.78;37.17
39954;BME280;25631;51.516;-0.470;2023-02-13T08:32:25;103253.09;;;5.60;37.16
39954;BME280;25631;51.516;-0.470;2023-02-13T08:35:02;103252.88;;;5.31;37.14
39954;BME280;25631;51.516;-0.470;2023-02-13T08:37:38;103253.60;;;5.38;37.20
39954;BME280;25631;51.516;-0.470;2023-02-13T08:40:15;103253.90;;;5.63;37.30
39954;BME280;25631;51.516;-0.470;2023-02-13T08:42:51;103253.96;;;5.32;37.41
39954;BME280;25631;51.516;-0.470;2023-02-13T08:45:29;103251.43;;;5.37;37.51
39954;BME280;25631;51.516;-0.470;2023-02-13T08:48:05;103249.00;;;5.36;37.55
39954;BME280;25631;51.516;-0.470;2023-02-13T08:50:42;103248.12;;;5.77;37.51
39954;BME280;25631;51.516;-0.470;2023-02-13T08:53:19;103241.93;;;5.53;37.54
39954;BME280;25631;51.516;-0.470;2023-02-13T08:55:56;103243.89;;;5.67;37.63
39954;BME280;25631;51.516;-0.470;2023-02-13T08:58:33;103242.57;;;5.39;37.64
39954;BME280;25631;51.516;-0.470;2023-02-13T09:01:10;103243.47;;;5.43;37.64
39954;BME280;25631;51.516;-0.470;2023-02-13T09:03:46;103241.09;;;5.42;37.76
39954;BME280;25631;51.516;-0.470;2023-02-13T09:06:23;103238.03;;;5.49;37.78
39954;BME280;25631;51.516;-0.470;2023-02-13T09:08:59;103234.79;;;5.48;37.86
39954;BME280;25631;51.516;-0.470;2023-02-13T09:11:36;103231.00;;;5.51;37.91
39954;BME280;25631;51.516;-0.470;2023-02-13T09:14:12;103227.68;;;5.53;37.90
39954;BME280;25631;51.516;-0.470;2023-02-13T09:16:49;103228.41;;;5.50;37.90
39954;BME280;25631;51.516;-0.470;2023-02-13T09:19:25;103228.60;;;5.69;37.90
39954;BME280;25631;51.516;-0.470;2023-02-13T09:22:02;103227.62;;;5.68;37.88
39954;BME280;25631;51.516;-0.470;2023-02-13T09:24:38;103227.85;;;5.78;37.87
39954;BME280;25631;51.516;-0.470;2023-02-13T09:27:15;103225.14;;;5.66;37.94
39954;BME280;25631;51.516;-0.470;2023-02-13T09:29:51;103226.12;;;5.62;37.94
39954;BME280;25631;51.516;-0.470;2023-02-13T09:32:28;103221.60;;;5.75;37.98
39954;BME280;25631;51.516;-0.470;2023-02-13T09:35:05;103219.56;;;5.86;37.92
39954;BME280;25631;51.516;-0.470;2023-02-13T09:37:41;103215.79;;;5.75;37.94
39954;BME280;25631;51.516;-0.470;2023-02-13T09:40:22;103217.00;;;5.93;37.97
39954;BME280;25631;51.516;-0.470;2023-02-13T09:43:09;103220.88;;;5.91;38.02
39954;BME280;25631;51.516;-0.470;2023-02-13T09:45:48;103219.81;;;5.72;38.07
39954;BME280;25631;51.516;-0.470;2023-02-13T09:48:28;103218.50;;;5.64;38.19
39954;BME280;25631;51.516;-0.470;2023-02-13T09:51:06;103215.28;;;5.76;38.19
39954;BME280;25631;51.516;-0.470;2023-02-13T09:53:48;103215.95;;;5.91;38.20
39954;BME280;25631;51.516;-0.470;2023-02-13T09:56:38;103217.44;;;5.85;38.24
39954;BME280;25631;51.516;-0.470;2023-02-13T09:59:33;103216.46;;;6.10;38.26
39954;BME280;25631;51.516;-0.470;2023-02-13T10:02:24;103213.89;;;5.92;38.23
39954;BME280;25631;51.516;-0.470;2023-02-13T10:05:16;103212.85;;;6.04;38.18
39954;BME280;25631;51.516;-0.470;2023-02-13T10:07:59;103213.98;;;5.75;38.26
39954;BME280;25631;51.516;-0.470;2023-02-13T10:10:50;103215.18;;;5.86;38.28
39954;BME280;25631;51.516;-0.470;2023-02-13T10:13:39;103211.83;;;5.98;38.33
39954;BME280;25631;51.516;-0.470;2023-02-13T10:16:22;103216.04;;;6.07;38.43
39954;BME280;25631;51.516;-0.470;2023-02-13T10:19:04;103215.98;;;6.04;38.35
39954;BME280;25631;51.516;-0.470;2023-02-13T10:21:50;103215.17;;;6.19;38.33
39954;BME280;25631;51.516;-0.470;2023-02-13T10:24:32;103214.61;;;6.04;38.39
39954;BME280;25631;51.516;-0.470;2023-02-13T10:27:19;103219.58;;;6.01;38.63
39954;BME280;25631;51.516;-0.470;2023-02-13T10:29:59;103222.54;;;5.83;38.55
39954;BME280;25631;51.516;-0.470;2023-02-13T10:32:45;103220.68;;;6.06;38.55
39954;BME280;25631;51.516;-0.470;2023-02-13T10:35:28;103220.48;;;5.99;38.66
39954;BME280;25631;51.516;-0.470;2023-02-13T10:38:14;103219.92;;;5.90;38.71
39954;BME280;25631;51.516;-0.470;2023-02-13T10:41:21;103223.66;;;6.10;38.72
39954;BME280;25631;51.516;-0.470;2023-02-13T10:44:24;103227.08;;;6.17;38.62
39954;BME280;25631;51.516;-0.470;2023-02-13T10:47:14;103228.70;;;6.10;38.67
39954;BME280;25631;51.516;-0.470;2023-02-13T10:50:06;103228.16;;;6.30;38.60
39954;BME280;25631;51.516;-0.470;2023-02-13T10:52:53;103225.97;;;6.30;38.64
39954;BME280;25631;51.516;-0.470;2023-02-13T10:55:56;103222.12;;;6.22;38.66
39954;BME280;25631;51.516;-0.470;2023-02-13T10:58:48;103222.08;;;6.16;38.68
39954;BME280;25631;51.516;-0.470;2023-02-13T11:01:35;103223.62;;;6.59;38.64
39954;BME280;25631;51.516;-0.470;2023-02-13T11:04:17;103222.65;;;6.34;38.53
39954;BME280;25631;51.516;-0.470;2023-02-13T11:06:56;103219.29;;;6.52;38.37
39954;BME280;25631;51.516;-0.470;2023-02-13T11:09:38;103221.06;;;6.74;38.22
39954;BME280;25631;51.516;-0.470;2023-02-13T11:12:26;103217.98;;;6.59;38.23
39954;BME280;25631;51.516;-0.470;2023-02-13T11:15:06;103212.57;;;6.75;38.14
39954;BME280;25631;51.516;-0.470;2023-02-13T11:17:44;103210.74;;;6.31;38.19
39954;BME280;25631;51.516;-0.470;2023-02-13T11:20:28;103210.03;;;6.32;38.16
39954;BME280;25631;51.516;-0.470;2023-02-13T11:23:33;103208.66;;;6.48;38.20
39954;BME280;25631;51.516;-0.470;2023-02-13T11:26:14;103203.98;;;6.43;38.46
39954;BME280;25631;51.516;-0.470;2023-02-13T11:29:00;103197.97;;;6.62;38.43
39954;BME280;25631;51.516;-0.470;2023-02-13T11:31:39;103194.89;;;6.35;38.44
39954;BME280;25631;51.516;-0.470;2023-02-13T11:34:23;103189.47;;;5.94;38.37
39954;BME280;25631;51.516;-0.470;2023-02-13T11:37:22;103184.03;;;6.76;38.20
39954;BME280;25631;51.516;-0.470;2023-02-13T11:39:59;103182.44;;;6.89;38.14
39954;BME280;25631;51.516;-0.470;2023-02-13T11:42:56;103181.33;;;6.96;37.97
39954;BME280;25631;51.516;-0.470;2023-02-13T11:45:34;103177.99;;;6.80;37.95
39954;BME280;25631;51.516;-0.470;2023-02-13T11:48:20;103171.68;;;7.15;37.93
39954;BME280;25631;51.516;-0.470;2023-02-13T11:50:57;103166.76;;;7.13;37.85
39954;BME280;25631;51.516;-0.470;2023-02-13T11:53:38;103163.98;;;7.14;37.67
39954;BME280;25631;51.516;-0.470;2023-02-13T11:56:15;103157.88;;;7.43;37.38
39954;BME280;25631;51.516;-0.470;2023-02-13T11:59:00;103149.39;;;6.89;36.96
39954;BME280;25631;51.516;-0.470;2023-02-13T12:01:37;103150.39;;;7.57;36.89
39954;BME280;25631;51.516;-0.470;2023-02-13T12:04:16;103145.53;;;7.91;36.90
39954;BME280;25631;51.516;-0.470;2023-02-13T12:07:00;103137.16;;;7.57;36.98
39954;BME280;25631;51.516;-0.470;2023-02-13T12:09:38;103137.28;;;7.94;36.91
39954;BME280;25631;51.516;-0.470;2023-02-13T12:12:20;103140.87;;;7.63;36.66
39954;BME280;25631;51.516;-0.470;2023-02-13T12:14:57;103140.18;;;7.90;36.58
39954;BME280;25631;51.516;-0.470;2023-02-13T12:17:39;103139.35;;;8.01;36.66
39954;BME280;25631;51.516;-0.470;2023-02-13T12:20:18;103135.54;;;7.91;36.39
39954;BME280;25631;51.516;-0.470;2023-02-13T12:23:01;103127.58;;;8.25;36.13
39954;BME280;25631;51.516;-0.470;2023-02-13T12:25:48;103128.19;;;8.73;36.08
39954;BME280;25631;51.516;-0.470;2023-02-13T12:28:38;103128.62;;;8.52;35.73
39954;BME280;25631;51.516;-0.470;2023-02-13T12:31:35;103124.68;;;8.47;35.48
39954;BME280;25631;51.516;-0.470;2023-02-13T12:34:29;103121.78;;;8.59;35.38
39954;BME280;25631;51.516;-0.470;2023-02-13T12:37:18;103114.17;;;8.89;35.14
39954;BME280;25631;51.516;-0.470;2023-02-13T12:40:07;103108.73;;;8.79;35.02
39954;BME280;25631;51.516;-0.470;2023-02-13T12:43:02;103106.29;;;9.08;34.87
39954;BME280;25631;51.516;-0.470;2023-02-13T12:45:41;103106.16;;;9.07;34.78
39954;BME280;25631;51.516;-0.470;2023-02-13T12:48:31;103106.51;;;9.14;34.70
39954;BME280;25631;51.516;-0.470;2023-02-13T12:51:23;103106.15;;;9.16;34.60
39954;BME280;25631;51.516;-0.470;2023-02-13T12:54:20;103110.61;;;9.32;34.34
39954;BME280;25631;51.516;-0.470;2023-02-13T12:57:14;103103.77;;;9.46;34.46
39954;BME280;25631;51.516;-0.470;2023-02-13T13:00:07;103100.71;;;9.52;34.26
39954;BME280;25631;51.516;-0.470;2023-02-13T13:03:00;103096.90;;;9.78;33.95
39954;BME280;25631;51.516;-0.470;2023-02-13T13:05:52;103095.01;;;9.68;33.71
39954;BME280;25631;51.516;-0.470;2023-02-13T13:08:46;103093.07;;;9.73;33.80
39954;BME280;25631;51.516;-0.470;2023-02-13T13:11:39;103092.09;;;10.00;33.79
39954;BME280;25631;51.516;-0.470;2023-02-13T13:14:28;103087.87;;;9.90;33.40
39954;BME280;25631;51.516;-0.470;2023-02-13T13:17:18;103082.98;;;10.10;33.37
39954;BME280;25631;51.516;-0.470;2023-02-13T13:20:06;103081.73;;;10.03;33.13
39954;BME280;25631;51.516;-0.470;2023-02-13T13:22:54;103075.64;;;10.07;33.32
39954;BME280;25631;51.516;-0.470;2023-02-13T13:25:37;103072.32;;;9.90;33.39
39954;BME280;25631;51.516;-0.470;2023-02-13T13:28:19;103071.43;;;10.15;33.15
39954;BME280;25631;51.516;-0.470;2023-02-13T13:30:57;103061.47;;;10.22;33.08
39954;BME280;25631;51.516;-0.470;2023-02-13T13:33:35;103059.48;;;10.12;33.09
39954;BME280;25631;51.516;-0.470;2023-02-13T13:36:24;103060.72;;;10.54;32.76
39954;BME280;25631;51.516;-0.470;2023-02-13T13:39:10;103055.66;;;10.53;32.78
39954;BME280;25631;51.516;-0.470;2023-02-13T13:41:57;103052.82;;;10.59;32.41
39954;BME280;25631;51.516;-0.470;2023-02-13T13:44:48;103055.04;;;10.60;32.43
39954;BME280;25631;51.516;-0.470;2023-02-13T13:47:39;103047.66;;;10.66;32.35
39954;BME280;25631;51.516;-0.470;2023-02-13T13:50:23;103043.43;;;10.67;32.37
39954;BME280;25631;51.516;-0.470;2023-02-13T13:53:07;103044.79;;;10.88;32.25
39954;BME280;25631;51.516;-0.470;2023-02-13T13:56:16;103042.24;;;11.12;32.31
39954;BME280;25631;51.516;-0.470;2023-02-13T13:58:53;103044.17;;;10.89;32.30
39954;BME280;25631;51.516;-0.470;2023-02-13T14:01:30;103040.97;;;10.99;32.27
39954;BME280;25631;51.516;-0.470;2023-02-13T14:04:38;103038.12;;;11.13;32.11